Time;durP1;ratioP1;P1;durP2;ratioP2;P2;SDS_P1;SDS_P2;PMS_P1;PMS_P2;Temp;Humidity;BMP_temperature;BMP_pressure;BME280_temperature;BME280_humidity;BME280_pressure;Samples;Min_cycle;Max_cycle;Signal;HPM_P1;HPM_P2
2022/12/30 00:01:55;;;;;;;5.80;1.43;;;9.40;99.90;;;;;;6093807;23;20468;-62
2022/12/30 00:04:22;;;;;;;3.97;1.30;;;9.40;99.90;;;;;;6085250;23;20393;-61
2022/12/30 00:06:49;;;;;;;3.63;1.80;;;9.30;99.90;;;;;;6094514;23;20391;-57
2022/12/30 00:09:16;;;;;;;3.10;1.40;;;9.30;99.90;;;;;;6084321;23;20408;-62
2022/12/30 00:11:42;;;;;;;4.63;1.70;;;9.30;99.90;;;;;;6092593;23;20419;-61
2022/12/30 00:33:47;;;;;;;2.37;1.13;;;9.40;99.90;;;;;;6093323;23;20479;-62
2022/12/30 00:36:15;;;;;;;5.57;1.20;;;9.30;99.90;;;;;;6084771;23;20392;-60
2022/12/30 00:38:42;;;;;;;2.43;1.33;;;9.40;99.90;;;;;;6093524;23;20471;-58
2022/12/30 00:43:53;;;;;;;3.50;1.30;;;9.20;99.90;;;;;;6086749;23;20440;-56
2022/12/30 00:46:22;;;;;;;3.63;1.00;;;9.10;99.90;;;;;;6094047;23;20405;-61
2022/12/30 00:57:04;;;;;;;3.20;0.90;;;9.00;99.90;;;;;;6093707;23;20388;-60
2022/12/30 00:59:33;;;;;;;1.83;1.10;;;8.90;99.90;;;;;;6092821;23;20472;-62
2022/12/30 01:02:00;;;;;;;3.03;1.13;;;8.90;99.90;;;;;;6094175;23;20388;-60
2022/12/30 01:04:29;;;;;;;1.83;1.07;;;8.90;99.90;;;;;;6093187;23;20439;-62
2022/12/30 01:06:56;;;;;;;1.50;1.20;;;8.90;99.90;;;;;;6084777;23;20416;-61
2022/12/30 01:09:23;;;;;;;3.30;1.50;;;8.80;99.90;;;;;;6092997;23;20444;-63
2022/12/30 01:12:07;;;;;;;10.70;1.10;;;8.80;99.90;;;;;;6092698;23;20401;-63
2022/12/30 01:14:34;;;;;;;4.23;0.90;;;8.80;99.90;;;;;;6092570;23;20456;-61
2022/12/30 01:17:01;;;;;;;4.50;1.30;;;8.80;99.90;;;;;;6092405;23;20431;-62
2022/12/30 01:19:32;;;;;;;5.73;1.47;;;8.80;99.90;;;;;;6092706;23;20428;-62
2022/12/30 01:21:59;;;;;;;1.60;0.97;;;8.80;99.90;;;;;;6092315;23;20412;-61
2022/12/30 01:24:26;;;;;;;3.23;1.20;;;8.80;99.90;;;;;;6092821;23;20440;-62
2022/12/30 01:26:53;;;;;;;0.90;0.60;;;8.80;99.90;;;;;;6090854;23;20432;-62
2022/12/30 01:29:26;;;;;;;3.10;1.30;;;8.80;99.90;;;;;;6086584;23;20444;-61
2022/12/30 01:31:57;;;;;;;1.60;1.20;;;8.80;99.90;;;;;;6091906;23;20403;-61
2022/12/30 01:34:26;;;;;;;4.77;1.40;;;8.80;99.90;;;;;;6092360;23;20409;-58
2022/12/30 01:36:54;;;;;;;8.73;1.07;;;8.80;99.90;;;;;;6093392;23;20409;-64
2022/12/30 01:39:22;;;;;;;3.63;0.90;;;8.80;99.90;;;;;;6092847;23;20424;-62
2022/12/30 01:41:49;;;;;;;2.53;0.90;;;8.80;99.90;;;;;;6092809;23;20408;-65
2022/12/30 01:44:59;;;;;;;2.57;1.60;;;8.70;99.90;;;;;;6092713;23;20443;-61
2022/12/30 01:47:37;;;;;;;1.57;1.27;;;8.70;99.90;;;;;;6071629;23;20404;-62
2022/12/30 01:50:28;;;;;;;6.40;1.00;;;8.70;99.90;;;;;;6083804;23;20432;-62
2022/12/30 01:53:01;;;;;;;2.70;1.10;;;8.70;99.90;;;;;;6093308;23;20429;-61
2022/12/30 01:55:36;;;;;;;4.50;0.80;;;8.70;99.90;;;;;;6092806;23;20365;-62
2022/12/30 01:58:05;;;;;;;6.40;1.50;;;8.80;99.90;;;;;;6092394;23;20397;-63
2022/12/30 02:00:34;;;;;;;4.90;1.30;;;8.70;99.90;;;;;;6086863;23;20501;-60
2022/12/30 02:03:01;;;;;;;1.70;1.30;;;8.80;99.90;;;;;;6091945;23;20404;-62
2022/12/30 02:05:33;;;;;;;3.10;1.30;;;8.80;99.90;;;;;;6092113;23;20425;-58
2022/12/30 02:08:07;;;;;;;1.70;1.20;;;8.80;99.90;;;;;;6092367;23;20800;-61
2022/12/30 02:10:39;;;;;;;3.97;1.60;;;8.80;99.90;;;;;;6091960;23;20428;-64
2022/12/30 02:13:06;;;;;;;2.70;1.53;;;8.70;99.90;;;;;;6092041;23;20943;-62
2022/12/30 02:15:41;;;;;;;2.70;1.07;;;8.70;99.90;;;;;;6091369;23;20428;-62
2022/12/30 02:18:16;;;;;;;2.60;1.00;;;8.70;99.90;;;;;;6091760;23;20388;-61
2022/12/30 02:21:15;;;;;;;4.17;1.40;;;8.70;99.90;;;;;;6091426;23;20431;-61
2022/12/30 02:24:19;;;;;;;4.67;1.77;;;8.70;99.90;;;;;;6091832;23;20488;-60
2022/12/30 02:27:15;;;;;;;8.67;1.47;;;8.70;99.90;;;;;;6083217;23;20596;-62
2022/12/30 02:30:08;;;;;;;1.93;0.80;;;8.70;99.90;;;;;;6091962;23;20464;-61
2022/12/30 02:32:54;;;;;;;4.90;1.30;;;8.60;99.90;;;;;;6092240;23;20436;-61
2022/12/30 02:35:29;;;;;;;1.83;0.90;;;8.70;99.90;;;;;;6092745;23;20428;-58
2022/12/30 02:38:03;;;;;;;7.23;1.27;;;8.70;99.90;;;;;;6091332;23;20408;-62
2022/12/30 02:46:08;;;;;;;3.67;1.10;;;8.80;99.90;;;;;;6091787;23;20424;-58
2022/12/30 02:48:40;;;;;;;2.03;1.20;;;8.80;99.90;;;;;;6092662;23;20392;-60
2022/12/30 02:53:53;;;;;;;2.80;1.00;;;8.90;99.90;;;;;;6093376;23;20447;-61
2022/12/30 02:56:23;;;;;;;1.87;1.20;;;8.80;99.90;;;;;;6093015;23;20412;-62
2022/12/30 03:03:56;;;;;;;4.60;1.90;;;8.80;99.90;;;;;;6092216;23;20436;-62
2022/12/30 03:04:50;;;;;;;1.60;1.17;;;8.90;99.90;;;;;;6092662;23;20433;-62
2022/12/30 03:07:28;;;;;;;5.60;1.27;;;8.90;99.90;;;;;;6092510;23;20400;-64
2022/12/30 03:12:59;;;;;;;5.73;1.20;;;8.90;99.90;;;;;;6091407;23;20435;-62
2022/12/30 03:15:36;;;;;;;1.43;1.10;;;8.90;99.90;;;;;;6092941;23;20424;-62
2022/12/30 03:18:04;;;;;;;7.50;1.50;;;8.80;99.90;;;;;;6094115;23;20464;-63
2022/12/30 03:20:33;;;;;;;2.80;1.70;;;8.70;99.90;;;;;;6094066;23;20424;-62
2022/12/30 03:28:41;;;;;;;2.00;1.27;;;8.60;99.90;;;;;;6093998;23;20364;-61
2022/12/30 03:31:14;;;;;;;4.10;1.57;;;8.50;99.90;;;;;;6087237;23;20513;-59
2022/12/30 03:33:42;;;;;;;6.30;2.00;;;8.50;99.90;;;;;;6086386;23;20433;-62
2022/12/30 03:36:15;;;;;;;3.50;1.93;;;8.40;99.90;;;;;;6094147;23;20428;-62
2022/12/30 03:38:46;;;;;;;2.00;1.13;;;8.40;99.90;;;;;;6094745;23;20396;-61
2022/12/30 03:41:14;;;;;;;1.63;1.53;;;8.40;99.90;;;;;;6094392;23;20428;-59
2022/12/30 03:43:42;;;;;;;1.90;1.33;;;8.30;99.90;;;;;;6093772;23;20415;-60
2022/12/30 03:46:09;;;;;;;2.13;1.30;;;8.30;99.90;;;;;;6094467;23;20436;-65
2022/12/30 03:48:36;;;;;;;1.87;1.33;;;8.20;99.90;;;;;;6092295;23;20407;-63
2022/12/30 03:51:06;;;;;;;3.93;1.47;;;8.20;99.90;;;;;;6084809;23;20431;-62
2022/12/30 03:53:36;;;;;;;3.43;1.30;;;8.20;99.90;;;;;;6093813;23;20409;-66
2022/12/30 03:56:05;;;;;;;4.83;1.53;;;8.20;99.90;;;;;;6093921;23;20396;-61
2022/12/30 03:58:31;;;;;;;1.93;1.10;;;8.10;99.90;;;;;;6094762;23;20400;-64
2022/12/30 04:00:59;;;;;;;2.87;1.60;;;8.20;99.90;;;;;;6093801;23;20411;-63
2022/12/30 04:03:31;;;;;;;6.40;1.77;;;8.20;99.90;;;;;;6094960;23;20403;-61
2022/12/30 04:05:58;;;;;;;4.20;1.43;;;8.20;99.90;;;;;;6084586;23;20389;-58
2022/12/30 04:08:25;;;;;;;5.67;1.80;;;8.20;99.90;;;;;;6094067;23;20407;-61
2022/12/30 04:10:53;;;;;;;2.13;1.40;;;8.20;99.90;;;;;;6093535;23;20419;-61
2022/12/30 04:13:22;;;;;;;3.03;1.60;;;8.20;99.90;;;;;;6085867;23;20440;-61
2022/12/30 04:15:49;;;;;;;2.60;1.43;;;8.20;99.90;;;;;;6093814;23;20384;-61
2022/12/30 04:18:17;;;;;;;6.40;1.30;;;8.20;99.90;;;;;;6093887;23;20395;-61
2022/12/30 04:20:50;;;;;;;1.97;1.23;;;8.20;99.90;;;;;;6093055;23;20416;-61
2022/12/30 04:23:17;;;;;;;4.07;1.20;;;8.20;99.90;;;;;;6093554;23;20393;-62
2022/12/30 04:25:45;;;;;;;9.27;1.87;;;8.10;99.90;;;;;;6081409;23;20682;-62
2022/12/30 04:28:13;;;;;;;2.70;0.93;;;8.00;99.90;;;;;;6093435;23;20429;-61
2022/12/30 04:30:40;;;;;;;2.60;1.10;;;8.00;99.90;;;;;;6093266;23;20400;-59
2022/12/30 04:33:09;;;;;;;7.10;1.23;;;7.90;99.90;;;;;;6092465;23;20459;-61
2022/12/30 04:35:36;;;;;;;4.53;1.53;;;7.90;99.90;;;;;;6093026;23;20449;-62
2022/12/30 04:38:02;;;;;;;2.10;1.20;;;8.00;99.90;;;;;;6093024;23;20440;-62
2022/12/30 04:40:29;;;;;;;6.10;1.30;;;7.80;99.90;;;;;;6094391;23;20400;-60
2022/12/30 04:42:56;;;;;;;1.07;0.90;;;7.80;99.90;;;;;;6089662;23;20428;-62
2022/12/30 04:45:29;;;;;;;2.70;1.53;;;7.70;99.90;;;;;;6089090;23;20385;-61
2022/12/30 04:47:56;;;;;;;2.43;1.27;;;7.60;99.90;;;;;;6095174;23;20440;-60
2022/12/30 04:50:23;;;;;;;5.30;1.33;;;7.60;99.90;;;;;;6094699;23;20408;-61
2022/12/30 04:52:50;;;;;;;2.40;1.33;;;7.60;99.90;;;;;;6093991;23;20930;-62
2022/12/30 04:55:17;;;;;;;3.67;1.17;;;7.60;99.90;;;;;;6092471;23;20476;-61
2022/12/30 04:57:44;;;;;;;1.40;1.10;;;7.60;99.90;;;;;;6086211;23;20502;-63
2022/12/30 05:00:12;;;;;;;4.80;1.37;;;7.60;99.90;;;;;;6092776;23;20404;-60
2022/12/30 05:02:43;;;;;;;1.87;1.00;;;7.60;99.90;;;;;;6092473;23;20413;-63
2022/12/30 05:05:10;;;;;;;5.27;1.37;;;7.60;99.90;;;;;;6092939;23;20377;-62
2022/12/30 05:07:37;;;;;;;1.47;0.90;;;7.60;99.90;;;;;;6093312;23;20428;-61
2022/12/30 05:10:04;;;;;;;4.93;1.20;;;7.60;99.90;;;;;;6093055;23;20400;-62
2022/12/30 05:12:31;;;;;;;1.27;0.93;;;7.50;99.90;;;;;;6088883;23;20413;-59
2022/12/30 05:14:58;;;;;;;4.00;1.10;;;7.50;99.90;;;;;;6084643;23;20443;-59
2022/12/30 05:17:30;;;;;;;1.50;1.00;;;7.50;99.90;;;;;;6093908;23;20404;-61
2022/12/30 05:19:58;;;;;;;3.10;1.67;;;7.50;99.90;;;;;;6094300;23;20389;-60
2022/12/30 05:22:32;;;;;;;6.50;1.27;;;7.50;99.90;;;;;;6093075;23;20420;-60
2022/12/30 05:27:49;;;;;;;1.60;0.83;;;7.40;99.90;;;;;;6093903;23;20484;-61
2022/12/30 05:30:18;;;;;;;3.83;1.20;;;7.40;99.90;;;;;;6093487;23;20397;-60
2022/12/30 05:32:46;;;;;;;1.80;1.03;;;7.30;99.90;;;;;;6092609;23;20436;-61
2022/12/30 05:35:14;;;;;;;1.90;1.00;;;7.30;99.90;;;;;;6092769;23;20419;-61
2022/12/30 05:37:49;;;;;;;3.13;1.23;;;7.30;99.90;;;;;;6092483;23;20408;-61
2022/12/30 05:40:16;;;;;;;2.67;1.10;;;7.20;99.90;;;;;;6092827;23;20851;-61
2022/12/30 05:42:52;;;;;;;1.40;1.00;;;7.20;99.90;;;;;;6092555;23;20404;-61
2022/12/30 05:45:19;;;;;;;1.90;1.13;;;7.20;99.90;;;;;;6093134;23;20385;-62
2022/12/30 05:47:46;;;;;;;2.60;1.67;;;7.20;99.90;;;;;;6092317;23;20440;-61
2022/12/30 05:50:14;;;;;;;2.03;1.17;;;7.20;99.90;;;;;;6091974;23;20879;-61
2022/12/30 05:52:41;;;;;;;4.47;1.30;;;7.20;99.90;;;;;;6092342;23;20404;-58
2022/12/30 05:55:10;;;;;;;3.70;1.10;;;7.10;99.90;;;;;;6092649;23;20428;-62
2022/12/30 05:57:37;;;;;;;4.63;1.30;;;7.10;99.90;;;;;;6093083;23;20484;-63
2022/12/30 06:00:05;;;;;;;1.67;0.93;;;7.10;99.90;;;;;;6093111;23;20404;-63
2022/12/30 06:02:33;;;;;;;1.47;1.13;;;7.00;99.90;;;;;;6092729;23;20488;-65
2022/12/30 06:05:01;;;;;;;3.40;1.40;;;7.00;99.90;;;;;;6094010;23;20388;-62
2022/12/30 06:07:30;;;;;;;3.10;1.20;;;7.00;99.90;;;;;;6086204;23;20424;-62
2022/12/30 06:09:56;;;;;;;2.83;1.53;;;7.00;99.90;;;;;;6092989;23;20408;-61
2022/12/30 06:12:23;;;;;;;1.73;0.90;;;7.00;99.90;;;;;;6092330;23;20404;-62
2022/12/30 06:14:50;;;;;;;4.53;2.13;;;7.00;99.90;;;;;;6091717;23;20455;-61
2022/12/30 06:17:17;;;;;;;3.10;1.57;;;7.00;99.90;;;;;;6092421;23;20408;-60
2022/12/30 06:19:47;;;;;;;5.37;1.20;;;7.00;99.90;;;;;;6092073;23;20429;-62
2022/12/30 06:22:14;;;;;;;2.90;1.20;;;7.00;99.90;;;;;;6091336;23;20413;-62
2022/12/30 06:24:42;;;;;;;6.20;1.90;;;7.00;99.90;;;;;;6091685;23;20440;-62
2022/12/30 06:27:09;;;;;;;6.30;1.00;;;7.00;99.90;;;;;;6091882;23;20400;-62
2022/12/30 06:29:36;;;;;;;3.53;2.10;;;7.00;99.90;;;;;;6092253;23;20433;-61
2022/12/30 06:32:03;;;;;;;2.13;1.37;;;7.00;99.90;;;;;;6084996;23;20419;-61
2022/12/30 06:34:30;;;;;;;4.70;1.80;;;6.90;99.90;;;;;;6082841;23;20463;-62
2022/12/30 06:36:57;;;;;;;2.23;0.97;;;6.90;99.90;;;;;;6092217;23;20422;-60
2022/12/30 06:39:26;;;;;;;4.50;1.17;;;6.90;99.90;;;;;;6091452;23;20400;-60
2022/12/30 06:41:55;;;;;;;5.33;1.00;;;6.90;99.90;;;;;;6090580;23;20404;-62
2022/12/30 06:44:26;;;;;;;3.03;1.40;;;6.90;99.90;;;;;;6086827;23;20447;-62
2022/12/30 06:46:53;;;;;;;3.87;1.33;;;6.80;99.90;;;;;;6092440;23;20400;-62
2022/12/30 06:49:20;;;;;;;5.07;1.20;;;6.80;99.90;;;;;;6091983;23;20467;-62
2022/12/30 06:51:47;;;;;;;1.33;1.00;;;6.80;99.90;;;;;;6091041;23;20396;-63
2022/12/30 06:54:13;;;;;;;6.53;1.30;;;6.80;99.90;;;;;;6091196;23;20452;-63
2022/12/30 06:56:40;;;;;;;5.10;1.90;;;6.80;99.90;;;;;;6086031;23;20388;-63
2022/12/30 06:59:09;;;;;;;2.10;1.17;;;6.80;99.90;;;;;;6092327;23;20439;-63
2022/12/30 07:01:35;;;;;;;5.20;1.47;;;6.70;99.90;;;;;;6092295;23;20385;-62
2022/12/30 07:04:02;;;;;;;5.30;2.13;;;6.70;99.90;;;;;;6092407;23;20416;-62
2022/12/30 07:06:29;;;;;;;2.60;1.43;;;6.70;99.90;;;;;;6092563;23;20392;-62
2022/12/30 07:08:56;;;;;;;2.63;1.83;;;6.70;99.90;;;;;;6092135;23;20389;-62
2022/12/30 07:11:23;;;;;;;5.50;2.00;;;6.70;99.90;;;;;;6092187;23;20445;-59
2022/12/30 07:13:50;;;;;;;6.43;2.73;;;6.70;99.90;;;;;;6080679;23;20476;-62
2022/12/30 07:16:18;;;;;;;6.83;1.93;;;6.70;99.90;;;;;;6092035;23;20405;-62
2022/12/30 07:18:45;;;;;;;2.40;1.37;;;6.60;99.90;;;;;;6091854;23;20397;-62
2022/12/30 07:21:12;;;;;;;9.40;1.60;;;6.60;99.90;;;;;;6092094;23;20404;-61
2022/12/30 07:23:38;;;;;;;3.27;1.67;;;6.50;99.90;;;;;;6092363;23;20393;-63
2022/12/30 07:26:05;;;;;;;2.50;1.43;;;6.50;99.90;;;;;;6092210;23;20405;-62
2022/12/30 07:28:32;;;;;;;5.23;1.87;;;6.50;99.90;;;;;;6091764;23;20408;-61
2022/12/30 07:30:59;;;;;;;2.60;1.53;;;6.50;99.90;;;;;;6092257;23;20443;-59
2022/12/30 07:33:27;;;;;;;3.23;1.13;;;6.50;99.90;;;;;;6091850;23;20405;-61
2022/12/30 07:35:54;;;;;;;2.07;1.20;;;6.50;99.90;;;;;;6092400;23;20467;-61
2022/12/30 07:38:21;;;;;;;7.93;1.43;;;6.60;99.90;;;;;;6083484;23;20408;-62
2022/12/30 07:40:48;;;;;;;4.00;1.67;;;6.50;99.90;;;;;;6091276;23;20420;-60
2022/12/30 07:43:15;;;;;;;2.97;2.70;;;6.50;99.90;;;;;;6092078;23;20416;-61
2022/12/30 07:45:42;;;;;;;4.97;1.57;;;6.50;99.90;;;;;;6081107;23;20492;-61
2022/12/30 07:48:09;;;;;;;16.43;1.60;;;6.50;99.90;;;;;;6092882;23;20473;-62
2022/12/30 07:50:39;;;;;;;3.33;1.50;;;6.50;99.90;;;;;;6092289;23;20436;-62
2022/12/30 07:53:06;;;;;;;4.50;1.60;;;6.50;99.90;;;;;;6091659;23;20413;-63
2022/12/30 07:55:33;;;;;;;11.30;2.30;;;6.50;99.90;;;;;;6091864;23;20440;-62
2022/12/30 07:58:00;;;;;;;6.60;1.73;;;6.50;99.90;;;;;;6092126;23;20489;-62
2022/12/30 08:00:27;;;;;;;6.83;1.70;;;6.60;99.90;;;;;;6091787;23;20433;-62
2022/12/30 08:02:54;;;;;;;5.30;1.70;;;6.50;99.90;;;;;;6092691;23;20396;-61
2022/12/30 08:05:21;;;;;;;2.47;1.60;;;6.60;99.90;;;;;;6093942;23;20480;-62
2022/12/30 08:07:55;;;;;;;2.57;1.53;;;6.60;99.90;;;;;;6094088;23;20429;-61
2022/12/30 08:10:22;;;;;;;1.87;1.23;;;6.50;99.90;;;;;;6093792;23;20416;-62
2022/12/30 08:12:49;;;;;;;5.13;1.60;;;6.50;99.90;;;;;;6093833;23;20404;-61
2022/12/30 08:15:16;;;;;;;3.67;1.67;;;6.50;99.90;;;;;;6093841;23;20531;-62
2022/12/30 08:17:43;;;;;;;7.23;1.67;;;6.50;99.90;;;;;;6093160;23;20385;-59
2022/12/30 08:20:11;;;;;;;12.00;2.23;;;6.60;99.90;;;;;;6093995;23;20408;-61
2022/12/30 08:22:39;;;;;;;6.03;1.53;;;6.60;99.90;;;;;;6092493;23;20404;-62
2022/12/30 08:25:08;;;;;;;4.40;1.60;;;6.60;99.90;;;;;;6088506;23;20409;-61
2022/12/30 08:27:35;;;;;;;5.70;2.17;;;6.60;99.90;;;;;;6093045;23;20400;-62
2022/12/30 08:30:06;;;;;;;3.50;1.53;;;6.60;99.90;;;;;;6093231;23;20474;-63
2022/12/30 08:32:33;;;;;;;6.37;1.43;;;6.70;99.90;;;;;;6093173;23;20423;-58
2022/12/30 08:35:02;;;;;;;3.20;1.23;;;6.70;99.90;;;;;;6093039;23;21021;-61
2022/12/30 08:37:30;;;;;;;7.13;1.57;;;6.70;99.90;;;;;;6093261;23;20409;-62
2022/12/30 08:39:57;;;;;;;1.83;1.10;;;6.70;99.90;;;;;;6093221;23;20408;-62
2022/12/30 08:42:26;;;;;;;1.50;1.03;;;6.70;99.90;;;;;;6093282;23;20389;-61
2022/12/30 08:44:52;;;;;;;7.40;1.23;;;6.70;99.90;;;;;;6093214;23;20400;-62
2022/12/30 08:47:19;;;;;;;5.53;1.10;;;6.70;99.90;;;;;;6092607;23;20404;-61
2022/12/30 08:49:46;;;;;;;2.20;1.00;;;6.70;99.90;;;;;;6093231;23;20404;-60
2022/12/30 08:52:13;;;;;;;2.70;1.40;;;6.80;99.90;;;;;;6092623;23;20440;-58
2022/12/30 08:54:40;;;;;;;3.90;1.17;;;6.80;99.90;;;;;;6087549;23;20933;-62
2022/12/30 08:57:08;;;;;;;3.03;1.73;;;6.80;99.90;;;;;;6089900;23;20494;-62
2022/12/30 08:59:37;;;;;;;3.67;1.10;;;6.90;99.90;;;;;;6092956;23;20392;-60
2022/12/30 09:02:04;;;;;;;4.50;1.80;;;6.90;99.90;;;;;;6092504;23;20428;-62
2022/12/30 09:04:32;;;;;;;2.07;1.20;;;7.00;99.90;;;;;;6093368;23;20404;-63
2022/12/30 09:07:01;;;;;;;3.20;1.70;;;7.00;99.90;;;;;;6093569;23;20459;-64
2022/12/30 09:09:28;;;;;;;6.80;1.43;;;7.10;99.90;;;;;;6093109;23;20403;-61
2022/12/30 09:11:55;;;;;;;5.07;1.07;;;7.00;99.90;;;;;;6092750;23;20450;-62
2022/12/30 09:14:28;;;;;;;4.40;2.27;;;7.10;99.90;;;;;;6092631;23;21014;-59
2022/12/30 09:16:56;;;;;;;2.03;1.87;;;7.10;99.90;;;;;;6093117;23;20443;-61
2022/12/30 09:19:23;;;;;;;7.37;2.40;;;7.20;99.90;;;;;;6092497;23;20834;-62
2022/12/30 09:21:54;;;;;;;9.30;2.63;;;7.20;99.90;;;;;;6092610;23;20404;-58
2022/12/30 09:24:21;;;;;;;2.63;1.10;;;7.20;99.90;;;;;;6092697;23;20385;-63
2022/12/30 09:26:48;;;;;;;3.03;2.10;;;7.30;99.90;;;;;;6092443;23;20431;-63
2022/12/30 09:29:15;;;;;;;9.80;1.00;;;7.30;99.90;;;;;;6092619;23;20384;-61
2022/12/30 09:31:43;;;;;;;7.23;1.90;;;7.40;99.90;;;;;;6092204;23;20464;-61
2022/12/30 09:34:11;;;;;;;2.30;1.37;;;7.40;99.90;;;;;;6092138;23;20413;-62
2022/12/30 09:36:38;;;;;;;4.30;1.63;;;7.50;99.90;;;;;;6092010;23;20938;-60
2022/12/30 09:39:07;;;;;;;8.77;1.27;;;7.50;99.90;;;;;;6092901;23;20405;-61
2022/12/30 09:44:44;;;;;;;3.87;1.23;;;7.60;99.90;;;;;;6093736;23;20392;-60
2022/12/30 09:47:21;;;;;;;2.57;1.10;;;7.70;99.90;;;;;;6087556;23;20436;-62
2022/12/30 09:49:53;;;;;;;1.27;0.80;;;7.80;99.90;;;;;;6092339;23;20393;-64
2022/12/30 09:52:27;;;;;;;1.23;1.13;;;7.80;99.90;;;;;;6093323;23;20464;-59
2022/12/30 09:54:59;;;;;;;2.63;1.17;;;7.90;99.90;;;;;;6093682;23;20429;-62
2022/12/30 09:57:33;;;;;;;13.93;1.30;;;8.00;99.90;;;;;;6093694;23;20460;-62
2022/12/30 10:00:07;;;;;;;3.17;1.50;;;8.20;99.90;;;;;;6093844;23;20408;-60
2022/12/30 10:02:58;;;;;;;1.90;1.37;;;8.40;99.90;;;;;;6093211;23;20466;-60
2022/12/30 10:05:47;;;;;;;2.03;1.20;;;8.60;99.90;;;;;;6092884;23;20381;-62
2022/12/30 10:08:27;;;;;;;4.30;1.03;;;8.90;99.90;;;;;;6091995;23;20483;-61
2022/12/30 10:11:05;;;;;;;1.70;1.13;;;9.30;99.90;;;;;;6092767;23;20416;-59
2022/12/30 10:13:44;;;;;;;2.40;1.03;;;9.50;99.90;;;;;;6093123;23;20439;-67
2022/12/30 10:16:18;;;;;;;1.83;1.13;;;9.90;99.90;;;;;;6092974;23;20435;-65
2022/12/30 10:19:03;;;;;;;3.40;1.23;;;10.30;99.90;;;;;;6087768;23;20432;-61
2022/12/30 10:21:44;;;;;;;2.43;1.00;;;10.90;99.90;;;;;;6092805;23;20416;-62
2022/12/30 10:24:31;;;;;;;3.73;2.03;;;11.60;99.90;;;;;;6092210;23;20412;-62
2022/12/30 10:26:59;;;;;;;1.73;1.40;;;12.30;99.90;;;;;;6091716;23;20393;-63
2022/12/30 10:29:31;;;;;;;6.17;1.63;;;12.50;99.90;;;;;;6091822;23;20392;-61
2022/12/30 10:32:02;;;;;;;6.30;1.73;;;12.50;99.90;;;;;;6091431;23;20393;-62
2022/12/30 10:34:34;;;;;;;9.37;1.43;;;12.10;99.90;;;;;;6091049;23;20407;-62
2022/12/30 10:37:04;;;;;;;1.40;1.10;;;11.60;99.90;;;;;;6091505;23;20405;-61
2022/12/30 10:39:35;;;;;;;6.53;1.47;;;11.30;99.90;;;;;;6089717;23;20740;-61
2022/12/30 10:42:18;;;;;;;6.37;2.17;;;11.00;99.90;;;;;;6091195;23;20440;-60
2022/12/30 10:44:59;;;;;;;1.97;1.20;;;10.70;99.90;;;;;;6091272;23;20507;-61
2022/12/30 10:47:43;;;;;;;3.63;1.93;;;10.40;99.90;;;;;;6091071;23;20388;-61
2022/12/30 10:50:25;;;;;;;1.30;1.00;;;10.10;99.90;;;;;;6092153;23;20405;-62
2022/12/30 10:52:54;;;;;;;4.50;1.57;;;10.00;99.90;;;;;;6090576;23;20405;-62
2022/12/30 10:55:24;;;;;;;3.63;1.93;;;9.90;99.90;;;;;;6090529;23;20440;-61
2022/12/30 10:57:56;;;;;;;3.30;1.43;;;9.80;99.90;;;;;;6090812;23;20413;-61
2022/12/30 11:00:23;;;;;;;7.97;2.10;;;9.80;99.90;;;;;;6091883;23;20393;-62
2022/12/30 11:02:58;;;;;;;4.57;1.47;;;9.80;99.90;;;;;;6091467;23;20443;-60
2022/12/30 11:05:33;;;;;;;6.33;1.30;;;10.00;99.90;;;;;;6091875;23;20388;-59
2022/12/30 11:08:06;;;;;;;3.83;1.37;;;9.80;99.90;;;;;;6083526;23;20393;-62
2022/12/30 11:10:33;;;;;;;5.33;1.97;;;9.80;99.90;;;;;;6092564;23;20397;-61
2022/12/30 11:15:57;;;;;;;3.50;1.93;;;9.80;99.90;;;;;;6092458;23;20431;-62
2022/12/30 11:18:27;;;;;;;6.70;2.07;;;9.80;99.90;;;;;;6092063;23;20404;-60
2022/12/30 11:20:56;;;;;;;4.80;1.00;;;9.80;99.90;;;;;;6045695;23;1086615;-62
2022/12/30 11:23:32;;;;;;;4.40;1.67;;;9.90;99.90;;;;;;6093244;23;20365;-61
2022/12/30 11:26:04;;;;;;;2.63;1.50;;;9.90;99.90;;;;;;6093088;23;20452;-61
2022/12/30 11:28:35;;;;;;;6.20;2.03;;;10.00;99.90;;;;;;6092655;23;20381;-61
2022/12/30 11:31:07;;;;;;;3.30;1.37;;;10.00;99.90;;;;;;6092831;23;20388;-61
2022/12/30 11:33:37;;;;;;;1.77;1.13;;;10.00;99.90;;;;;;6091965;23;20416;-62
2022/12/30 11:36:20;;;;;;;4.13;1.30;;;10.00;99.90;;;;;;6086602;23;20438;-61
2022/12/30 11:38:49;;;;;;;3.30;0.90;;;10.00;99.90;;;;;;6092434;23;20500;-59
2022/12/30 11:41:29;;;;;;;2.73;1.53;;;10.00;99.90;;;;;;6094053;23;20400;-62
2022/12/30 11:44:16;;;;;;;1.20;1.10;;;10.10;99.90;;;;;;6093778;23;20428;-60
2022/12/30 11:46:46;;;;;;;3.27;1.20;;;10.10;99.90;;;;;;6094387;23;20377;-60
2022/12/30 11:49:26;;;;;;;2.50;1.43;;;10.00;99.90;;;;;;6093844;23;20431;-58
2022/12/30 11:51:55;;;;;;;3.50;1.77;;;10.00;99.90;;;;;;6093939;23;20373;-61
2022/12/30 11:54:26;;;;;;;5.80;1.47;;;10.00;99.90;;;;;;6088846;23;20428;-61
2022/12/30 11:56:54;;;;;;;6.30;1.40;;;10.00;99.90;;;;;;6093772;23;20419;-58
2022/12/30 11:59:24;;;;;;;3.43;1.37;;;10.00;99.90;;;;;;6093330;23;20432;-58
2022/12/30 12:01:54;;;;;;;6.20;1.73;;;10.00;99.90;;;;;;6093786;23;20396;-60
2022/12/30 12:04:38;;;;;;;2.17;1.10;;;10.10;99.90;;;;;;6085167;23;20451;-59
2022/12/30 12:07:07;;;;;;;2.83;1.17;;;10.10;99.90;;;;;;6094167;23;20412;-60
2022/12/30 12:09:41;;;;;;;4.53;1.20;;;10.10;99.90;;;;;;6093611;23;20417;-61
2022/12/30 12:12:16;;;;;;;4.57;1.37;;;10.10;99.90;;;;;;6095148;23;20372;-58
2022/12/30 12:14:58;;;;;;;3.10;1.33;;;10.10;99.90;;;;;;6094482;23;20702;-63
2022/12/30 12:17:38;;;;;;;8.30;1.30;;;10.00;99.90;;;;;;6093828;23;20385;-62
2022/12/30 12:20:20;;;;;;;4.07;1.10;;;10.00;99.90;;;;;;6094139;23;20420;-60
2022/12/30 12:22:58;;;;;;;3.93;1.07;;;10.00;99.90;;;;;;6094420;23;20404;-60
2022/12/30 12:25:33;;;;;;;2.40;1.40;;;10.00;99.90;;;;;;6093601;23;20428;-62
2022/12/30 12:28:00;;;;;;;1.93;1.70;;;10.00;99.90;;;;;;6095137;23;20431;-62
2022/12/30 12:30:42;;;;;;;9.33;1.90;;;10.00;99.90;;;;;;6094805;23;20437;-60
2022/12/30 12:33:23;;;;;;;3.90;1.20;;;10.00;99.90;;;;;;6094359;23;20456;-59
2022/12/30 12:36:01;;;;;;;4.37;1.43;;;10.00;99.90;;;;;;6093845;23;20466;-61
2022/12/30 12:39:00;;;;;;;5.40;1.93;;;10.00;99.90;;;;;;6093826;23;20392;-61
2022/12/30 12:41:45;;;;;;;4.73;1.80;;;10.00;99.90;;;;;;6087497;23;20424;-62
2022/12/30 12:44:49;;;;;;;3.43;2.00;;;10.10;99.90;;;;;;6094565;23;20377;-61
2022/12/30 12:47:31;;;;;;;5.03;2.10;;;10.10;99.90;;;;;;6094891;23;20411;-61
2022/12/30 12:50:15;;;;;;;7.00;2.00;;;10.10;99.90;;;;;;6083582;23;20421;-62
2022/12/30 12:52:54;;;;;;;2.90;1.73;;;10.10;99.90;;;;;;6087171;23;20403;-60
2022/12/30 12:55:40;;;;;;;5.97;2.40;;;10.10;99.90;;;;;;6093402;23;20492;-60
2022/12/30 12:58:18;;;;;;;5.27;2.47;;;10.20;99.90;;;;;;6049204;23;20412;-62
2022/12/30 13:00:57;;;;;;;6.57;1.83;;;10.20;99.90;;;;;;6093512;23;20436;-60
2022/12/30 13:03:56;;;;;;;7.10;2.13;;;10.20;99.90;;;;;;6093079;23;20389;-61
2022/12/30 13:06:36;;;;;;;3.80;1.77;;;10.20;99.90;;;;;;6085218;23;20682;-61
2022/12/30 13:09:34;;;;;;;3.90;1.57;;;10.20;99.90;;;;;;6090420;23;20416;-62
2022/12/30 13:12:08;;;;;;;1.97;1.50;;;10.20;99.90;;;;;;6092783;23;20423;-61
2022/12/30 13:14:42;;;;;;;6.10;2.07;;;10.20;99.90;;;;;;6091803;23;20420;-61
2022/12/30 13:17:16;;;;;;;8.00;1.70;;;10.20;99.90;;;;;;6092359;23;20444;-63
2022/12/30 13:19:54;;;;;;;1.40;1.07;;;10.10;99.90;;;;;;6092080;23;20402;-58
2022/12/30 13:22:26;;;;;;;3.13;1.43;;;10.10;99.90;;;;;;6090719;23;20416;-61
2022/12/30 13:24:54;;;;;;;3.47;1.47;;;10.10;99.90;;;;;;6091550;23;20377;-63
2022/12/30 13:27:24;;;;;;;3.73;1.70;;;10.10;99.90;;;;;;6093102;23;20384;-60
2022/12/30 13:29:54;;;;;;;1.80;1.23;;;10.10;99.90;;;;;;6092442;23;20384;-61
2022/12/30 13:32:28;;;;;;;3.57;1.83;;;10.00;99.90;;;;;;6092917;23;20385;-61
2022/12/30 13:35:02;;;;;;;3.17;1.40;;;10.00;99.90;;;;;;6083885;23;20484;-62
2022/12/30 13:37:36;;;;;;;4.33;1.63;;;10.00;99.90;;;;;;6093472;23;20429;-65
2022/12/30 13:40:10;;;;;;;2.40;1.13;;;9.90;99.90;;;;;;6093052;23;20404;-58
2022/12/30 13:42:57;;;;;;;5.10;1.80;;;9.90;99.90;;;;;;6093291;23;20380;-60
2022/12/30 13:45:28;;;;;;;4.27;1.70;;;9.90;99.90;;;;;;6091743;23;20393;-62
2022/12/30 13:48:02;;;;;;;3.20;1.30;;;9.90;99.90;;;;;;6087192;23;20407;-61
2022/12/30 13:50:31;;;;;;;2.40;1.60;;;9.80;99.90;;;;;;6092522;23;20869;-63
2022/12/30 13:53:00;;;;;;;2.10;1.50;;;9.80;99.90;;;;;;6092949;23;20408;-61
2022/12/30 13:55:31;;;;;;;4.87;1.67;;;9.80;99.90;;;;;;6091936;23;20471;-60
2022/12/30 13:58:05;;;;;;;4.60;1.63;;;9.80;99.90;;;;;;6088653;23;20872;-61
2022/12/30 14:00:35;;;;;;;2.87;1.80;;;9.80;99.90;;;;;;6091323;23;20369;-61
2022/12/30 14:03:09;;;;;;;2.40;1.87;;;9.70;99.90;;;;;;6091824;23;20393;-59
2022/12/30 14:06:03;;;;;;;7.20;2.70;;;9.70;99.90;;;;;;6083812;23;20388;-61
2022/12/30 14:08:50;;;;;;;5.33;1.57;;;9.60;99.90;;;;;;6091441;23;20381;-61
2022/12/30 14:11:18;;;;;;;6.00;1.93;;;9.60;99.90;;;;;;6082655;23;20865;-61
2022/12/30 14:14:13;;;;;;;3.87;1.63;;;9.60;99.90;;;;;;6091715;23;20425;-61
2022/12/30 14:16:54;;;;;;;2.50;1.87;;;9.60;99.90;;;;;;6086960;23;20446;-63
2022/12/30 14:19:49;;;;;;;6.27;2.17;;;9.60;99.90;;;;;;6091708;23;20404;-60